Ashcamp, KY

09:09 PM EST em 28 de Novembro de 2014 (GMT -0500)
Tazewell County | Change Station
CLOSE
Current Station
Aeroporto
Location: Richlands,
Altitude: 2651 ft
Estações Meteorológicas Próximas

Elev 2651 ft 37.06 °N, 81.80 °W | Updated 14 minutes ago

Céu Limpo
Céu Limpo
31 °F
Aparente 26 °F
N
5
Vento Variável Vento de Sul

Hoje
Máxima -- | Mínima -- °F
--% Possibilidade de Precip.
Ontem
Máxima -- | Mínima -- °F
Precip. -- pol
7:22 AM 5:13 PM
Quarto crescente, 46% visible
Pressão 30.17 pol
Visibilidade 10.0 milhas
Nuvens Céu Limpo
Sensação Térmica 26 °F
Ponto de Orvalho 20 °F
Humidade 65%
Chuva 0.00 pol
Altura de Neve Não disponível
UV 0 em vez de 12
Pólen .10 em vez de 12
Qualidade do Ar Não disponível
Flu Activity Não disponível
METAR KJFZ 290155Z AUTO 17004KT 10SM CLR M01/M06 A3017 RMK AO2 T10061064

More Conditions Fewer Conditions

Pressão 30.17 pol
Visibilidade 10.0 milhas
Nuvens Céu Limpo
Sensação Térmica 26 °F
Ponto de Orvalho 20 °F
Humidade 65%
Chuva 0.00 pol
Altura de Neve Não disponível
UV 0 em vez de 12
Pólen .10 em vez de 12
Qualidade do Ar Não disponível
Flu Activity Não disponível
METAR KJFZ 290155Z AUTO 17004KT 10SM CLR M01/M06 A3017 RMK AO2 T10061064

More Conditions Fewer Conditions

10-Day Weather Forecast

Almanac

Astronomia

Nov. 28, 2014 Nascer Pôr
Hora atual
Crepúsculo civil
Crepúsculo náutico
Crepúsculo astronómico
Lua
Comprimento da luz visível
Duração do Dia
Tomorrow will be .
, % of the Moon is Illuminated

Extremos de Hoje

situação na parte mais alta situação na parte mais baixa

Community

WunderPhotos

Upload Photos

1,774,367 fotografias inseridas!

WunderBlogs® & News

Nearby

Qualidade do Ar

  Qualidade do Ar Índice da Q.A. Poluente
Not available.

Altura da Neve

Estação altura Altitude

Actividade Sísmisca

Cidade Distância Mag. Hora & Data
Mínima magnitude apresentada é 2.5.

Temperaturas das Águas Costeiras

Local Temperatura

Estações Meteorológicas Próximas